createdAt,value
2017-09-29T00:00:26.210Z,28.00
2017-09-29T00:02:53.621Z,26.23
2017-09-29T00:05:21.808Z,18.20
2017-09-29T00:07:50.102Z,18.80
2017-09-29T00:10:17.521Z,19.80
2017-09-29T00:12:45.719Z,18.33
2017-09-29T00:15:13.202Z,21.20
2017-09-29T00:17:40.646Z,19.57
2017-09-29T00:20:08.058Z,18.73
2017-09-29T00:22:35.477Z,17.00
2017-09-29T00:25:02.907Z,16.07
2017-09-29T00:27:30.490Z,15.27
2017-09-29T00:29:57.882Z,15.73
2017-09-29T00:32:26.070Z,15.73
2017-09-29T00:34:54.265Z,17.27
2017-09-29T00:37:21.678Z,15.83
2017-09-29T00:39:49.206Z,19.67
2017-09-29T00:42:16.610Z,16.83
2017-09-29T00:44:44.797Z,16.80
2017-09-29T00:47:13.502Z,18.57
2017-09-29T00:49:40.917Z,18.40
2017-09-29T00:52:08.343Z,18.90
2017-09-29T00:54:35.787Z,16.67
2017-09-29T00:57:03.202Z,18.63
2017-09-29T00:59:31.397Z,16.27
2017-09-29T01:01:58.872Z,20.53
2017-09-29T01:04:26.350Z,17.00
2017-09-29T01:06:53.770Z,19.27
2017-09-29T01:09:21.194Z,18.30
2017-09-29T01:11:49.270Z,18.47
2017-09-29T01:14:16.773Z,21.37
2017-09-29T01:16:44.182Z,20.50
2017-09-29T01:19:12.390Z,19.97
2017-09-29T01:21:39.802Z,23.87
2017-09-29T01:24:07.991Z,21.53
2017-09-29T01:26:36.187Z,21.60
2017-09-29T01:29:03.602Z,21.07
2017-09-29T01:31:31.031Z,19.30
2017-09-29T01:33:58.477Z,27.23
2017-09-29T01:36:25.934Z,26.90
2017-09-29T01:38:53.353Z,32.57
2017-09-29T01:41:21.550Z,37.40
2017-09-29T01:43:48.969Z,31.10
2017-09-29T01:46:16.400Z,31.77
2017-09-29T01:48:43.822Z,27.90
2017-09-29T01:51:11.262Z,24.33
2017-09-29T01:53:38.678Z,24.57
2017-09-29T01:56:06.199Z,25.77
2017-09-29T01:58:33.634Z,25.03
2017-09-29T02:01:01.046Z,26.17
2017-09-29T02:03:28.482Z,28.10
2017-09-29T02:05:55.898Z,27.90
2017-09-29T02:08:24.082Z,29.83
2017-09-29T02:10:51.503Z,30.00
2017-09-29T02:13:18.931Z,30.43
2017-09-29T02:15:46.399Z,32.47
2017-09-29T02:18:13.806Z,29.97
2017-09-29T02:20:41.223Z,25.40
2017-09-29T02:23:08.649Z,25.17
2017-09-29T02:25:36.097Z,26.00
2017-09-29T02:28:03.491Z,25.70
2017-09-29T02:30:30.944Z,26.50
2017-09-29T02:32:58.369Z,27.13
2017-09-29T02:35:25.846Z,23.77
2017-09-29T02:37:53.265Z,29.47
2017-09-29T02:40:20.733Z,27.20
2017-09-29T02:42:48.161Z,25.30
2017-09-29T02:45:16.370Z,25.47
2017-09-29T02:47:43.798Z,26.37
2017-09-29T02:50:11.282Z,23.60
2017-09-29T02:52:38.697Z,23.73
2017-09-29T02:55:06.885Z,21.90
2017-09-29T02:57:36.971Z,21.20
2017-09-29T03:00:06.230Z,24.97
2017-09-29T03:02:37.286Z,25.57
2017-09-29T03:05:07.760Z,30.63
2017-09-29T03:07:35.946Z,33.83
2017-09-29T03:10:03.374Z,34.37
2017-09-29T03:12:30.902Z,32.40
2017-09-29T03:14:59.161Z,28.00
2017-09-29T03:17:26.623Z,22.27
2017-09-29T03:19:54.082Z,27.80
2017-09-29T03:22:21.522Z,34.93
2017-09-29T03:24:48.990Z,23.40
2017-09-29T03:27:16.410Z,23.30
2017-09-29T03:29:44.615Z,22.07
2017-09-29T03:32:12.042Z,16.20
2017-09-29T03:34:40.245Z,18.20
2017-09-29T03:37:07.671Z,16.80
2017-09-29T03:39:35.854Z,17.23
2017-09-29T03:42:03.910Z,17.70
2017-09-29T03:44:32.133Z,27.73
2017-09-29T03:46:59.550Z,28.23
2017-09-29T03:49:27.729Z,26.43
2017-09-29T03:51:57.830Z,29.97
2017-09-29T03:54:27.578Z,31.00
2017-09-29T03:56:57.429Z,30.40
2017-09-29T03:59:24.854Z,29.23
2017-09-29T04:01:52.277Z,31.73
2017-09-29T04:04:20.466Z,31.70
2017-09-29T04:06:47.885Z,33.13
2017-09-29T04:09:15.302Z,31.63
2017-09-29T04:11:42.730Z,28.87
2017-09-29T04:14:10.150Z,26.93
2017-09-29T04:16:37.579Z,22.70
2017-09-29T04:19:04.998Z,26.20
2017-09-29T04:21:32.426Z,26.43
2017-09-29T04:23:59.842Z,31.50
2017-09-29T04:26:27.284Z,36.33
2017-09-29T04:28:54.691Z,30.87
2017-09-29T04:31:22.126Z,35.17
2017-09-29T04:33:49.542Z,32.70
2017-09-29T04:36:16.968Z,30.13
2017-09-29T04:38:44.386Z,23.07
2017-09-29T04:41:11.809Z,25.23
2017-09-29T04:43:39.230Z,23.00
2017-09-29T04:46:06.655Z,20.50
2017-09-29T04:48:34.075Z,23.77
2017-09-29T04:51:01.574Z,24.13
2017-09-29T04:59:35.482Z,24.80
2017-09-29T05:02:02.914Z,29.20
2017-09-29T05:04:31.095Z,26.63
2017-09-29T05:06:59.282Z,29.90
2017-09-29T05:09:26.707Z,35.33
2017-09-29T05:11:54.126Z,35.27
2017-09-29T05:14:21.548Z,28.83
2017-09-29T05:16:49.734Z,28.03
2017-09-29T05:19:17.923Z,32.27
2017-09-29T05:21:45.342Z,33.73
2017-09-29T05:24:13.539Z,36.70
2017-09-29T05:26:40.958Z,39.57
2017-09-29T05:29:08.383Z,42.70
2017-09-29T05:31:35.806Z,41.73
2017-09-29T05:34:03.232Z,43.17
2017-09-29T05:36:30.645Z,42.50
2017-09-29T05:38:58.070Z,46.90
2017-09-29T05:41:25.489Z,45.57
2017-09-29T05:43:52.919Z,43.97
2017-09-29T05:46:20.348Z,38.67
2017-09-29T05:48:47.761Z,38.03
2017-09-29T05:51:15.179Z,36.40
2017-09-29T05:53:42.594Z,32.03
2017-09-29T05:56:10.790Z,29.70
2017-09-29T05:58:38.218Z,28.50
2017-09-29T06:01:06.411Z,27.03
2017-09-29T06:03:33.835Z,27.37
2017-09-29T06:06:01.261Z,21.13
2017-09-29T06:08:28.686Z,25.87
2017-09-29T06:10:56.114Z,20.80
2017-09-29T06:13:24.295Z,25.50
2017-09-29T06:15:52.483Z,24.77
2017-09-29T06:18:19.900Z,24.47
2017-09-29T06:20:47.323Z,22.77
2017-09-29T06:23:14.746Z,26.47
2017-09-29T06:25:42.942Z,23.13
2017-09-29T06:28:10.359Z,24.37
2017-09-29T06:30:38.546Z,25.67
2017-09-29T06:33:06.739Z,22.60
2017-09-29T06:35:34.157Z,29.40
2017-09-29T06:38:02.359Z,21.70
2017-09-29T06:40:29.774Z,26.37
2017-09-29T06:42:57.198Z,25.37
2017-09-29T06:45:24.627Z,21.77
2017-09-29T06:47:52.046Z,27.60
2017-09-29T06:50:19.481Z,29.47
2017-09-29T06:52:46.898Z,31.13
2017-09-29T06:55:14.331Z,28.07
2017-09-29T06:57:41.743Z,29.63
2017-09-29T07:00:09.162Z,27.20
2017-09-29T07:02:36.578Z,26.50
2017-09-29T07:05:04.002Z,32.97
2017-09-29T07:07:31.437Z,31.07
2017-09-29T07:09:58.854Z,32.00
2017-09-29T07:12:26.270Z,33.63
2017-09-29T07:14:53.686Z,28.90
2017-09-29T07:17:21.879Z,30.73
2017-09-29T07:19:49.303Z,37.87
2017-09-29T07:22:16.713Z,33.40
2017-09-29T07:24:45.251Z,31.10
2017-09-29T07:27:15.174Z,31.77
2017-09-29T07:29:44.595Z,35.90
2017-09-29T07:32:12.255Z,33.83
2017-09-29T07:34:39.675Z,38.63
2017-09-29T07:37:07.098Z,31.20
2017-09-29T07:39:34.522Z,34.20
2017-09-29T07:42:01.943Z,29.90
2017-09-29T07:44:29.371Z,31.37
2017-09-29T07:46:56.811Z,33.10
2017-09-29T07:49:24.218Z,33.40
2017-09-29T07:51:52.418Z,30.57
2017-09-29T07:54:19.839Z,32.07
2017-09-29T07:56:47.259Z,29.07
2017-09-29T07:59:14.695Z,31.80
2017-09-29T08:01:42.114Z,37.03
2017-09-29T08:04:09.552Z,34.57
2017-09-29T08:06:36.962Z,30.07
2017-09-29T08:09:04.386Z,28.60
2017-09-29T08:11:32.580Z,26.07
2017-09-29T08:14:00.003Z,23.30
2017-09-29T08:16:27.436Z,25.57
2017-09-29T08:18:54.860Z,24.47
2017-09-29T08:21:22.283Z,23.20
2017-09-29T08:23:49.698Z,21.80
2017-09-29T08:26:17.123Z,23.30
2017-09-29T08:28:44.544Z,19.10
2017-09-29T08:31:11.967Z,24.10
2017-09-29T08:33:39.385Z,21.37
2017-09-29T08:36:06.878Z,15.27
2017-09-29T08:38:34.303Z,20.00
2017-09-29T08:41:01.726Z,23.83
2017-09-29T08:43:29.139Z,17.87
2017-09-29T08:45:56.597Z,14.20
2017-09-29T08:48:23.995Z,13.90
2017-09-29T08:50:51.438Z,19.60
2017-09-29T08:53:18.849Z,17.87
2017-09-29T08:55:46.278Z,21.73
2017-09-29T08:58:14.458Z,20.53
2017-09-29T09:00:42.644Z,17.00
2017-09-29T09:03:10.066Z,16.90
2017-09-29T09:05:37.490Z,13.83
2017-09-29T09:08:04.918Z,13.40
2017-09-29T09:10:32.376Z,13.33
2017-09-29T09:12:59.767Z,14.70
2017-09-29T09:15:27.199Z,12.80
2017-09-29T09:17:54.619Z,13.00
2017-09-29T09:20:22.835Z,14.00
2017-09-29T09:22:50.288Z,11.30
2017-09-29T09:25:17.740Z,12.10
2017-09-29T09:27:45.150Z,9.80
2017-09-29T09:30:12.662Z,9.13
2017-09-29T09:32:40.127Z,8.77
2017-09-29T09:35:07.546Z,9.40
2017-09-29T09:37:35.726Z,8.60
2017-09-29T09:40:04.027Z,9.70
2017-09-29T09:42:31.431Z,7.30
2017-09-29T09:44:58.857Z,7.93
2017-09-29T09:47:26.274Z,7.50
2017-09-29T09:49:53.683Z,9.40
2017-09-29T09:52:21.724Z,7.40
2017-09-29T09:54:49.124Z,8.60
2017-09-29T09:57:16.535Z,5.47
2017-09-29T09:59:43.965Z,7.73
2017-09-29T10:02:12.171Z,11.20
2017-09-29T10:04:39.578Z,10.77
2017-09-29T10:07:06.995Z,7.90
2017-09-29T10:09:34.403Z,7.50
2017-09-29T10:12:01.819Z,8.30
2017-09-29T10:14:29.240Z,6.97
2017-09-29T10:16:56.810Z,6.90
2017-09-29T10:19:24.218Z,7.83
2017-09-29T10:21:52.427Z,9.23
2017-09-29T10:24:19.846Z,7.17
2017-09-29T10:26:48.065Z,8.00
2017-09-29T10:29:15.518Z,7.13
2017-09-29T10:31:42.935Z,12.30
2017-09-29T10:34:11.117Z,7.30
2017-09-29T10:36:39.298Z,7.50
2017-09-29T10:39:06.714Z,7.93
2017-09-29T10:41:34.138Z,6.63
2017-09-29T10:44:01.558Z,8.20
2017-09-29T10:46:29.764Z,6.53
2017-09-29T10:48:57.186Z,9.43
2017-09-29T10:51:25.366Z,8.20
2017-09-29T10:53:53.574Z,10.40
2017-09-29T10:56:20.972Z,9.70
2017-09-29T10:58:48.390Z,9.03
2017-09-29T11:01:15.806Z,8.30
2017-09-29T11:03:44.014Z,8.97
2017-09-29T11:06:11.422Z,9.90
2017-09-29T11:08:39.606Z,9.40
2017-09-29T11:11:07.794Z,8.83
2017-09-29T11:13:35.996Z,9.17
2017-09-29T11:16:03.399Z,8.53
2017-09-29T11:18:30.809Z,7.67
2017-09-29T11:20:58.226Z,8.90
2017-09-29T11:23:26.414Z,9.03
2017-09-29T11:25:53.834Z,8.20
2017-09-29T11:28:21.250Z,8.80
2017-09-29T11:30:48.670Z,9.37
2017-09-29T11:33:16.859Z,9.77
2017-09-29T11:35:44.283Z,8.20
2017-09-29T11:38:11.690Z,8.13
2017-09-29T11:40:39.128Z,8.37
2017-09-29T11:43:06.530Z,6.50
2017-09-29T11:45:33.965Z,8.10
2017-09-29T11:48:01.410Z,7.87
2017-09-29T11:50:28.868Z,11.03
2017-09-29T11:52:56.324Z,9.83
2017-09-29T11:55:23.754Z,9.90
2017-09-29T11:57:51.934Z,10.90
2017-09-29T12:00:19.359Z,15.33
2017-09-29T12:02:46.778Z,13.40
2017-09-29T12:05:14.224Z,13.30
2017-09-29T12:07:41.642Z,13.30
2017-09-29T12:10:09.838Z,11.53
2017-09-29T12:12:37.254Z,14.93
2017-09-29T12:15:04.685Z,12.30
2017-09-29T12:17:32.128Z,10.33
2017-09-29T12:19:59.538Z,9.30
2017-09-29T12:22:27.727Z,10.00
2017-09-29T12:24:55.914Z,10.83
2017-09-29T12:27:23.330Z,8.60
2017-09-29T12:29:50.746Z,8.13
2017-09-29T12:32:18.170Z,8.80
2017-09-29T12:34:46.350Z,9.57
2017-09-29T12:37:13.771Z,8.30
2017-09-29T12:39:41.191Z,7.97
2017-09-29T12:42:08.639Z,9.33
2017-09-29T12:44:36.054Z,7.60
2017-09-29T12:47:04.233Z,7.70
2017-09-29T12:49:32.425Z,7.77
2017-09-29T12:51:59.839Z,7.90
2017-09-29T12:54:27.261Z,8.53
2017-09-29T12:56:54.669Z,9.20
2017-09-29T12:59:22.167Z,7.83
2017-09-29T13:01:49.630Z,7.53
2017-09-29T13:04:17.025Z,7.70
2017-09-29T13:06:44.440Z,8.50
2017-09-29T13:09:11.858Z,7.13
2017-09-29T13:11:40.047Z,8.57
2017-09-29T13:14:07.460Z,9.50
2017-09-29T13:16:34.870Z,7.07
2017-09-29T13:19:02.302Z,8.80
2017-09-29T13:21:30.494Z,11.23
2017-09-29T13:23:57.903Z,7.70
2017-09-29T13:26:25.320Z,7.73
2017-09-29T13:28:52.734Z,6.07
2017-09-29T13:31:20.922Z,10.53
2017-09-29T13:33:49.121Z,8.77
2017-09-29T13:36:16.522Z,7.00
2017-09-29T13:38:44.146Z,7.80
2017-09-29T13:41:11.539Z,13.10
2017-09-29T13:43:38.952Z,7.47
2017-09-29T13:46:06.389Z,7.27
2017-09-29T13:48:34.434Z,6.50
2017-09-29T13:51:02.673Z,7.33
2017-09-29T13:53:30.078Z,8.60
2017-09-29T13:55:58.263Z,7.30
2017-09-29T13:58:25.673Z,7.00
2017-09-29T14:00:53.206Z,7.30
2017-09-29T14:03:20.630Z,9.93
2017-09-29T14:05:48.806Z,6.50
2017-09-29T14:08:16.222Z,6.70
2017-09-29T14:10:43.637Z,6.70
2017-09-29T14:13:11.099Z,8.83
2017-09-29T14:15:38.515Z,9.50
2017-09-29T14:18:06.701Z,8.33
2017-09-29T14:20:34.907Z,6.80
2017-09-29T14:23:02.320Z,9.70
2017-09-29T14:25:29.816Z,8.20
2017-09-29T14:27:57.278Z,8.03
2017-09-29T14:30:24.734Z,7.47
2017-09-29T14:32:52.150Z,9.23
2017-09-29T14:35:20.366Z,6.93
2017-09-29T14:37:47.794Z,6.90
2017-09-29T14:40:15.276Z,6.20
2017-09-29T14:42:42.693Z,8.10
2017-09-29T14:45:10.878Z,6.60
2017-09-29T14:47:39.061Z,7.00
2017-09-29T14:50:06.494Z,8.13
2017-09-29T14:52:34.710Z,6.40
2017-09-29T14:55:02.172Z,7.37
2017-09-29T14:57:29.586Z,8.30
2017-09-29T14:59:57.762Z,7.93
2017-09-29T15:02:25.971Z,7.93
2017-09-29T15:04:53.394Z,8.90
2017-09-29T15:07:21.699Z,6.60
2017-09-29T15:09:49.111Z,8.80
2017-09-29T15:12:16.619Z,7.00
2017-09-29T15:14:44.039Z,9.03
2017-09-29T15:17:12.209Z,6.23
2017-09-29T15:19:40.411Z,6.93
2017-09-29T15:22:07.880Z,7.03
2017-09-29T15:24:35.341Z,6.83
2017-09-29T15:27:02.797Z,9.93
2017-09-29T15:29:30.251Z,6.50
2017-09-29T15:31:57.707Z,5.40
2017-09-29T15:34:25.131Z,6.10
2017-09-29T15:36:53.885Z,5.80
2017-09-29T15:39:21.304Z,5.67
2017-09-29T15:41:48.764Z,5.50
2017-09-29T15:44:16.221Z,5.73
2017-09-29T15:46:43.787Z,5.07
2017-09-29T15:49:11.250Z,4.40
2017-09-29T15:51:38.695Z,4.13
2017-09-29T15:54:06.350Z,7.00
2017-09-29T15:56:33.753Z,4.97
2017-09-29T15:59:01.373Z,4.20
2017-09-29T16:01:28.778Z,4.07
2017-09-29T16:03:56.196Z,7.90
2017-09-29T16:06:23.610Z,4.47
2017-09-29T16:08:51.815Z,4.70
2017-09-29T16:11:19.271Z,4.93
2017-09-29T16:13:46.683Z,3.90
2017-09-29T16:16:14.874Z,6.13
2017-09-29T16:18:43.054Z,3.80
2017-09-29T16:21:10.487Z,5.17
2017-09-29T16:23:38.098Z,4.90
2017-09-29T16:26:05.490Z,11.80
2017-09-29T16:28:33.115Z,4.40
2017-09-29T16:31:00.489Z,4.67
2017-09-29T16:33:28.023Z,6.33
2017-09-29T16:35:55.435Z,4.40
2017-09-29T16:38:23.623Z,4.03
2017-09-29T16:40:51.827Z,5.13
2017-09-29T16:43:19.258Z,3.50
2017-09-29T16:45:47.438Z,4.43
2017-09-29T16:48:14.910Z,4.70
2017-09-29T16:50:42.327Z,5.10
2017-09-29T16:53:10.510Z,3.87
2017-09-29T16:55:38.681Z,3.63
2017-09-29T16:58:06.897Z,5.47
2017-09-29T17:00:34.311Z,6.90
2017-09-29T17:03:02.535Z,3.83
2017-09-29T17:05:29.955Z,4.70
2017-09-29T17:07:58.161Z,3.67
2017-09-29T17:10:25.612Z,6.63
2017-09-29T17:12:53.031Z,4.97
2017-09-29T17:15:21.242Z,5.77
2017-09-29T17:17:48.704Z,4.87
2017-09-29T17:20:16.117Z,5.63
2017-09-29T17:22:44.290Z,4.00
2017-09-29T17:25:13.374Z,4.50
2017-09-29T17:27:41.010Z,5.50
2017-09-29T17:30:08.550Z,5.20
2017-09-29T17:32:35.958Z,4.77
2017-09-29T17:35:04.154Z,10.00
2017-09-29T17:37:31.636Z,10.80
2017-09-29T17:40:00.016Z,4.47
2017-09-29T17:42:27.418Z,4.37
2017-09-29T17:44:54.841Z,4.63
2017-09-29T17:47:22.278Z,4.30
2017-09-29T17:49:49.742Z,5.20
2017-09-29T17:52:17.198Z,10.23
2017-09-29T17:54:44.654Z,4.03
2017-09-29T17:57:12.082Z,4.03
2017-09-29T17:59:39.494Z,4.93
2017-09-29T18:02:06.923Z,3.57
2017-09-29T18:04:34.376Z,5.10
2017-09-29T18:07:01.822Z,6.33
2017-09-29T18:09:29.290Z,3.77
2017-09-29T18:11:56.702Z,5.57
2017-09-29T18:14:24.926Z,3.60
2017-09-29T18:16:52.381Z,4.10
2017-09-29T18:19:19.798Z,5.10
2017-09-29T18:21:48.007Z,4.63
2017-09-29T18:24:15.470Z,5.10
2017-09-29T18:26:42.882Z,5.13
2017-09-29T18:29:11.099Z,5.47
2017-09-29T18:31:38.552Z,4.30
2017-09-29T18:34:05.976Z,4.07
2017-09-29T18:36:34.146Z,5.10
2017-09-29T18:39:02.325Z,4.70
2017-09-29T18:41:32.912Z,4.77
2017-09-29T18:44:10.992Z,7.00
2017-09-29T18:46:41.022Z,9.87
2017-09-29T18:49:08.425Z,5.50
2017-09-29T18:51:36.746Z,10.47
2017-09-29T18:54:04.153Z,5.70
2017-09-29T18:56:32.337Z,6.70
2017-09-29T18:59:00.530Z,5.20
2017-09-29T19:01:28.004Z,8.53
2017-09-29T19:03:55.460Z,5.90
2017-09-29T19:06:22.878Z,6.33
2017-09-29T19:08:51.054Z,4.70
2017-09-29T19:11:19.268Z,5.60
2017-09-29T19:13:46.670Z,4.10
2017-09-29T19:16:14.174Z,6.47
2017-09-29T19:18:41.603Z,5.17
2017-09-29T19:21:09.773Z,7.10
2017-09-29T19:23:37.962Z,6.67
2017-09-29T19:26:05.380Z,7.43
2017-09-29T19:28:32.806Z,10.20
2017-09-29T19:31:00.221Z,8.10
2017-09-29T19:33:28.430Z,7.17
2017-09-29T19:35:55.838Z,9.40
2017-09-29T19:38:24.027Z,8.67
2017-09-29T19:40:52.796Z,11.47
2017-09-29T19:43:20.301Z,12.50
2017-09-29T19:45:47.714Z,12.90
2017-09-29T19:48:15.907Z,13.30
2017-09-29T19:50:43.326Z,16.70
2017-09-29T19:53:10.753Z,19.77
2017-09-29T19:55:38.205Z,11.63
2017-09-29T19:58:05.615Z,10.47
2017-09-29T20:00:33.841Z,9.40
2017-09-29T20:03:01.242Z,8.00
2017-09-29T20:05:28.679Z,16.47
2017-09-29T20:07:56.202Z,19.67
2017-09-29T20:10:23.621Z,11.33
2017-09-29T20:12:51.842Z,13.67
2017-09-29T20:15:19.265Z,17.43
2017-09-29T20:17:47.467Z,23.07
2017-09-29T20:20:14.895Z,23.70
2017-09-29T20:22:42.385Z,25.90
2017-09-29T20:25:09.814Z,17.70
2017-09-29T20:27:38.827Z,21.67
2017-09-29T20:30:06.255Z,18.53
2017-09-29T20:32:34.434Z,20.33
2017-09-29T20:35:01.914Z,20.67
2017-09-29T20:37:29.362Z,17.90
2017-09-29T20:39:56.773Z,19.97
2017-09-29T20:42:24.202Z,19.80
2017-09-29T20:44:51.619Z,16.60
2017-09-29T20:47:19.102Z,15.87
2017-09-29T20:49:46.559Z,22.43
2017-09-29T20:52:13.961Z,18.30
2017-09-29T20:54:41.378Z,20.50
2017-09-29T20:57:08.829Z,18.93
2017-09-29T20:59:36.279Z,12.70
2017-09-29T21:02:03.741Z,12.97
2017-09-29T21:04:31.143Z,15.10
2017-09-29T21:06:58.651Z,19.13
2017-09-29T21:09:26.073Z,17.30
2017-09-29T21:11:54.393Z,14.80
2017-09-29T21:14:21.810Z,21.07
2017-09-29T21:16:49.995Z,20.90
2017-09-29T21:19:17.418Z,17.80
2017-09-29T21:21:45.650Z,20.33
2017-09-29T21:24:13.077Z,25.27
2017-09-29T21:26:40.498Z,27.83
2017-09-29T21:29:07.922Z,25.03
2017-09-29T21:31:35.369Z,28.10
2017-09-29T21:34:02.798Z,26.60
2017-09-29T21:36:31.006Z,35.57
2017-09-29T21:38:58.434Z,32.70
2017-09-29T21:41:25.919Z,36.67
2017-09-29T21:43:53.330Z,30.87
2017-09-29T21:46:21.527Z,36.43
2017-09-29T21:48:48.953Z,32.23
2017-09-29T21:51:16.463Z,34.40
2017-09-29T21:53:43.874Z,21.43
2017-09-29T21:56:12.062Z,21.63
2017-09-29T21:58:40.271Z,25.83
2017-09-29T22:01:07.704Z,28.70
2017-09-29T22:03:36.108Z,27.03
2017-09-29T22:06:03.526Z,27.00
2017-09-29T22:08:31.736Z,25.83
2017-09-29T22:10:59.205Z,26.27
2017-09-29T22:13:26.633Z,29.97
2017-09-29T22:15:54.049Z,37.93
2017-09-29T22:18:21.469Z,34.40
2017-09-29T22:20:48.889Z,37.27
2017-09-29T22:23:16.319Z,35.50
2017-09-29T22:25:43.754Z,39.20
2017-09-29T22:28:11.186Z,38.70
2017-09-29T22:30:38.644Z,32.53
2017-09-29T22:33:06.204Z,37.90
2017-09-29T22:35:33.597Z,40.70
2017-09-29T22:38:01.847Z,41.10
2017-09-29T22:40:29.253Z,39.70
2017-09-29T22:42:57.446Z,40.70
2017-09-29T22:45:24.862Z,44.00
2017-09-29T22:47:53.094Z,43.07
2017-09-29T22:50:20.502Z,45.90
2017-09-29T22:52:48.745Z,44.20
2017-09-29T22:55:16.182Z,45.00
2017-09-29T22:57:43.609Z,45.43
2017-09-29T23:00:11.027Z,51.03
2017-09-29T23:02:38.473Z,55.90
2017-09-29T23:05:06.005Z,49.27
2017-09-29T23:07:33.423Z,57.97
2017-09-29T23:10:01.620Z,47.10
2017-09-29T23:12:29.033Z,26.00
2017-09-29T23:14:57.218Z,36.20
2017-09-29T23:17:24.634Z,25.70
2017-09-29T23:19:52.049Z,28.67
2017-09-29T23:22:20.238Z,36.57
2017-09-29T23:24:47.655Z,30.70
2017-09-29T23:27:15.073Z,25.47
2017-09-29T23:29:42.493Z,26.60
2017-09-29T23:32:10.672Z,25.50
2017-09-29T23:34:38.089Z,27.30
2017-09-29T23:37:05.509Z,32.90
2017-09-29T23:39:32.929Z,34.90
2017-09-29T23:42:01.126Z,25.90
2017-09-29T23:44:28.542Z,26.63
2017-09-29T23:46:55.970Z,29.87
2017-09-29T23:49:23.389Z,33.73
2017-09-29T23:51:50.818Z,31.97
2017-09-29T23:54:18.998Z,28.37
2017-09-29T23:56:47.213Z,35.17
2017-09-29T23:59:14.630Z,35.43
